sensor_id;sensor_type;location;lat;lon;timestamp;temperature;humidity
19258;DHT22;9763;48.780;9.212;2022-07-09T00:02:31;20.10;41.30
19258;DHT22;9763;48.780;9.212;2022-07-09T00:05:56;20.10;41.40
19258;DHT22;9763;48.780;9.212;2022-07-09T00:09:20;20.10;41.50
19258;DHT22;9763;48.780;9.212;2022-07-09T00:12:45;20.00;41.60
19258;DHT22;9763;48.780;9.212;2022-07-09T00:16:08;20.00;42.40
19258;DHT22;9763;48.780;9.212;2022-07-09T00:19:32;19.90;42.50
19258;DHT22;9763;48.780;9.212;2022-07-09T00:50:12;19.70;41.60
19258;DHT22;9763;48.780;9.212;2022-07-09T00:53:36;19.70;42.40
19258;DHT22;9763;48.780;9.212;2022-07-09T00:57:02;19.70;43.00
19258;DHT22;9763;48.780;9.212;2022-07-09T01:00:28;19.60;42.80
19258;DHT22;9763;48.780;9.212;2022-07-09T01:03:53;19.60;42.90
19258;DHT22;9763;48.780;9.212;2022-07-09T01:07:18;19.50;43.20
19258;DHT22;9763;48.780;9.212;2022-07-09T01:10:42;19.40;43.10
19258;DHT22;9763;48.780;9.212;2022-07-09T01:14:06;19.40;43.80
19258;DHT22;9763;48.780;9.212;2022-07-09T01:17:37;19.30;43.10
19258;DHT22;9763;48.780;9.212;2022-07-09T01:21:03;19.40;43.10
19258;DHT22;9763;48.780;9.212;2022-07-09T01:24:27;19.40;43.30
19258;DHT22;9763;48.780;9.212;2022-07-09T01:27:51;19.30;43.50
19258;DHT22;9763;48.780;9.212;2022-07-09T01:31:15;19.20;44.20
19258;DHT22;9763;48.780;9.212;2022-07-09T01:34:39;19.20;43.70
19258;DHT22;9763;48.780;9.212;2022-07-09T01:38:04;19.10;43.70
19258;DHT22;9763;48.780;9.212;2022-07-09T01:44:52;19.10;43.60
19258;DHT22;9763;48.780;9.212;2022-07-09T01:48:16;19.10;43.70
19258;DHT22;9763;48.780;9.212;2022-07-09T01:51:40;19.00;44.00
19258;DHT22;9763;48.780;9.212;2022-07-09T02:05:19;18.90;43.60
19258;DHT22;9763;48.780;9.212;2022-07-09T02:15:33;18.90;43.70
19258;DHT22;9763;48.780;9.212;2022-07-09T02:22:20;18.80;43.80
19258;DHT22;9763;48.780;9.212;2022-07-09T02:25:44;18.70;43.80
19258;DHT22;9763;48.780;9.212;2022-07-09T02:29:09;18.70;44.00
19258;DHT22;9763;48.780;9.212;2022-07-09T02:32:33;18.60;44.70
19258;DHT22;9763;48.780;9.212;2022-07-09T02:42:46;18.50;45.00
19258;DHT22;9763;48.780;9.212;2022-07-09T02:46:11;18.50;44.90
19258;DHT22;9763;48.780;9.212;2022-07-09T02:52:59;18.40;45.30
19258;DHT22;9763;48.780;9.212;2022-07-09T02:56:23;18.30;45.40
19258;DHT22;9763;48.780;9.212;2022-07-09T03:10:00;18.30;45.00
19258;DHT22;9763;48.780;9.212;2022-07-09T03:13:24;18.20;45.60
19258;DHT22;9763;48.780;9.212;2022-07-09T03:16:48;18.10;45.40
19258;DHT22;9763;48.780;9.212;2022-07-09T03:33:50;18.10;46.20
19258;DHT22;9763;48.780;9.212;2022-07-09T03:40:42;18.10;46.20
19258;DHT22;9763;48.780;9.212;2022-07-09T03:54:19;18.00;46.20
19258;DHT22;9763;48.780;9.212;2022-07-09T04:01:07;18.10;46.90
19258;DHT22;9763;48.780;9.212;2022-07-09T04:11:21;18.40;46.90
19258;DHT22;9763;48.780;9.212;2022-07-09T04:14:44;18.40;47.30
19258;DHT22;9763;48.780;9.212;2022-07-09T04:18:08;18.40;47.10
19258;DHT22;9763;48.780;9.212;2022-07-09T04:21:32;18.60;47.20
19258;DHT22;9763;48.780;9.212;2022-07-09T04:24:56;18.60;47.00
19258;DHT22;9763;48.780;9.212;2022-07-09T04:35:09;19.00;47.10
19258;DHT22;9763;48.780;9.212;2022-07-09T04:38:32;19.20;47.20
19258;DHT22;9763;48.780;9.212;2022-07-09T04:41:57;19.20;47.00
19258;DHT22;9763;48.780;9.212;2022-07-09T05:05:51;20.30;47.80
19258;DHT22;9763;48.780;9.212;2022-07-09T05:09:15;20.50;47.80
19258;DHT22;9763;48.780;9.212;2022-07-09T05:19:29;21.00;48.00
19258;DHT22;9763;48.780;9.212;2022-07-09T05:29:41;22.00;50.00
19258;DHT22;9763;48.780;9.212;2022-07-09T05:36:30;23.20;51.50
19258;DHT22;9763;48.780;9.212;2022-07-09T05:39:56;24.00;51.10
19258;DHT22;9763;48.780;9.212;2022-07-09T06:00:22;27.70;49.10
19258;DHT22;9763;48.780;9.212;2022-07-09T06:03:45;28.20;48.60
19258;DHT22;9763;48.780;9.212;2022-07-09T06:07:09;28.80;48.10
19258;DHT22;9763;48.780;9.212;2022-07-09T06:13:58;29.80;45.70
19258;DHT22;9763;48.780;9.212;2022-07-09T06:37:46;31.60;42.70
19258;DHT22;9763;48.780;9.212;2022-07-09T06:44:36;32.10;41.60
19258;DHT22;9763;48.780;9.212;2022-07-09T06:54:47;31.50;38.80
19258;DHT22;9763;48.780;9.212;2022-07-09T06:58:11;31.10;39.20
19258;DHT22;9763;48.780;9.212;2022-07-09T07:01:36;31.00;40.50
19258;DHT22;9763;48.780;9.212;2022-07-09T07:05:00;31.00;40.40
19258;DHT22;9763;48.780;9.212;2022-07-09T07:08:24;31.10;41.90
19258;DHT22;9763;48.780;9.212;2022-07-09T07:11:48;31.40;42.90
19258;DHT22;9763;48.780;9.212;2022-07-09T07:15:12;31.70;42.50
19258;DHT22;9763;48.780;9.212;2022-07-09T07:18:37;32.10;41.80
19258;DHT22;9763;48.780;9.212;2022-07-09T07:22:02;32.50;41.80
19258;DHT22;9763;48.780;9.212;2022-07-09T07:25:25;32.80;41.10
19258;DHT22;9763;48.780;9.212;2022-07-09T07:28:49;33.20;41.30
19258;DHT22;9763;48.780;9.212;2022-07-09T07:32:13;33.60;41.00
19258;DHT22;9763;48.780;9.212;2022-07-09T07:35:38;33.90;40.20
19258;DHT22;9763;48.780;9.212;2022-07-09T07:39:02;34.20;39.40
19258;DHT22;9763;48.780;9.212;2022-07-09T07:45:49;34.60;38.00
19258;DHT22;9763;48.780;9.212;2022-07-09T07:49:13;34.70;38.30
19258;DHT22;9763;48.780;9.212;2022-07-09T07:52:38;34.90;38.20
19258;DHT22;9763;48.780;9.212;2022-07-09T07:56:08;35.20;38.20
19258;DHT22;9763;48.780;9.212;2022-07-09T07:59:32;35.50;37.80
19258;DHT22;9763;48.780;9.212;2022-07-09T08:02:56;35.70;37.30
19258;DHT22;9763;48.780;9.212;2022-07-09T08:06:19;35.90;37.10
19258;DHT22;9763;48.780;9.212;2022-07-09T08:09:45;36.20;37.10
19258;DHT22;9763;48.780;9.212;2022-07-09T08:13:09;36.40;36.40
19258;DHT22;9763;48.780;9.212;2022-07-09T08:16:33;36.60;36.20
19258;DHT22;9763;48.780;9.212;2022-07-09T08:19:57;36.90;36.60
19258;DHT22;9763;48.780;9.212;2022-07-09T08:23:21;37.10;35.40
19258;DHT22;9763;48.780;9.212;2022-07-09T08:26:46;37.40;35.00
19258;DHT22;9763;48.780;9.212;2022-07-09T08:30:10;37.50;34.50
19258;DHT22;9763;48.780;9.212;2022-07-09T08:33:34;37.60;34.50
19258;DHT22;9763;48.780;9.212;2022-07-09T08:36:57;37.90;34.20
19258;DHT22;9763;48.780;9.212;2022-07-09T08:40:22;38.10;33.90
19258;DHT22;9763;48.780;9.212;2022-07-09T08:43:50;38.20;33.50
19258;DHT22;9763;48.780;9.212;2022-07-09T08:47:15;38.40;33.10
19258;DHT22;9763;48.780;9.212;2022-07-09T08:50:40;38.50;32.80
19258;DHT22;9763;48.780;9.212;2022-07-09T08:54:05;38.60;31.90
19258;DHT22;9763;48.780;9.212;2022-07-09T08:57:30;38.60;31.90
19258;DHT22;9763;48.780;9.212;2022-07-09T09:00:56;38.50;31.50
19258;DHT22;9763;48.780;9.212;2022-07-09T09:04:20;38.50;31.40
19258;DHT22;9763;48.780;9.212;2022-07-09T09:07:44;38.50;31.50
19258;DHT22;9763;48.780;9.212;2022-07-09T09:11:12;38.60;31.50
19258;DHT22;9763;48.780;9.212;2022-07-09T09:14:38;38.70;31.30
19258;DHT22;9763;48.780;9.212;2022-07-09T09:18:03;38.90;31.20
19258;DHT22;9763;48.780;9.212;2022-07-09T09:21:27;39.00;31.50
19258;DHT22;9763;48.780;9.212;2022-07-09T09:24:51;39.20;31.40
19258;DHT22;9763;48.780;9.212;2022-07-09T09:28:15;39.30;30.40
19258;DHT22;9763;48.780;9.212;2022-07-09T09:31:39;39.50;30.80
19258;DHT22;9763;48.780;9.212;2022-07-09T09:35:05;39.70;29.80
19258;DHT22;9763;48.780;9.212;2022-07-09T09:38:29;39.70;29.20
19258;DHT22;9763;48.780;9.212;2022-07-09T09:41:55;39.60;29.20
19258;DHT22;9763;48.780;9.212;2022-07-09T09:45:19;39.50;29.10
19258;DHT22;9763;48.780;9.212;2022-07-09T09:48:43;39.40;29.20
19258;DHT22;9763;48.780;9.212;2022-07-09T09:52:10;39.30;29.40
19258;DHT22;9763;48.780;9.212;2022-07-09T09:55:34;39.20;28.70
19258;DHT22;9763;48.780;9.212;2022-07-09T09:59:00;39.10;28.20
19258;DHT22;9763;48.780;9.212;2022-07-09T10:02:25;38.90;28.00
19258;DHT22;9763;48.780;9.212;2022-07-09T10:05:51;38.70;28.40
19258;DHT22;9763;48.780;9.212;2022-07-09T10:09:16;38.60;28.40
19258;DHT22;9763;48.780;9.212;2022-07-09T10:12:41;38.50;28.60
19258;DHT22;9763;48.780;9.212;2022-07-09T10:16:06;38.50;28.70
19258;DHT22;9763;48.780;9.212;2022-07-09T10:19:31;38.50;28.60
19258;DHT22;9763;48.780;9.212;2022-07-09T10:22:55;38.50;28.40
19258;DHT22;9763;48.780;9.212;2022-07-09T10:26:20;38.60;28.20
19258;DHT22;9763;48.780;9.212;2022-07-09T10:29:54;38.50;27.70
19258;DHT22;9763;48.780;9.212;2022-07-09T10:33:22;38.10;27.10
19258;DHT22;9763;48.780;9.212;2022-07-09T10:40:13;36.40;27.30
19258;DHT22;9763;48.780;9.212;2022-07-09T10:47:06;36.10;28.70
19258;DHT22;9763;48.780;9.212;2022-07-09T10:50:31;36.20;29.60
19258;DHT22;9763;48.780;9.212;2022-07-09T10:53:56;38.60;30.80
19258;DHT22;9763;48.780;9.212;2022-07-09T10:57:21;36.70;29.60
19258;DHT22;9763;48.780;9.212;2022-07-09T11:00:44;36.90;28.70
19258;DHT22;9763;48.780;9.212;2022-07-09T11:04:27;36.90;28.30
19258;DHT22;9763;48.780;9.212;2022-07-09T11:13:01;36.10;26.80
19258;DHT22;9763;48.780;9.212;2022-07-09T11:16:25;35.70;27.90
19258;DHT22;9763;48.780;9.212;2022-07-09T11:19:50;35.20;27.50
19258;DHT22;9763;48.780;9.212;2022-07-09T11:23:14;34.90;27.60
19258;DHT22;9763;48.780;9.212;2022-07-09T11:26:39;34.50;27.70
19258;DHT22;9763;48.780;9.212;2022-07-09T11:30:05;34.20;27.80
19258;DHT22;9763;48.780;9.212;2022-07-09T11:33:29;33.80;27.90
19258;DHT22;9763;48.780;9.212;2022-07-09T11:37:08;33.50;28.70
19258;DHT22;9763;48.780;9.212;2022-07-09T11:40:32;33.20;28.40
19258;DHT22;9763;48.780;9.212;2022-07-09T11:43:56;32.90;28.50
19258;DHT22;9763;48.780;9.212;2022-07-09T11:47:31;32.80;29.50
19258;DHT22;9763;48.780;9.212;2022-07-09T11:50:56;32.70;29.80
19258;DHT22;9763;48.780;9.212;2022-07-09T11:54:26;32.70;29.90
19258;DHT22;9763;48.780;9.212;2022-07-09T11:57:52;32.80;29.60
19258;DHT22;9763;48.780;9.212;2022-07-09T12:01:22;32.60;29.50
19258;DHT22;9763;48.780;9.212;2022-07-09T12:04:47;32.50;30.00
19258;DHT22;9763;48.780;9.212;2022-07-09T12:11:35;32.20;30.00
19258;DHT22;9763;48.780;9.212;2022-07-09T12:14:59;32.40;31.00
19258;DHT22;9763;48.780;9.212;2022-07-09T12:18:29;32.80;31.40
19258;DHT22;9763;48.780;9.212;2022-07-09T12:21:54;33.00;31.00
19258;DHT22;9763;48.780;9.212;2022-07-09T12:25:21;33.20;30.40
19258;DHT22;9763;48.780;9.212;2022-07-09T12:28:45;33.20;31.00
19258;DHT22;9763;48.780;9.212;2022-07-09T12:32:08;33.20;30.40
19258;DHT22;9763;48.780;9.212;2022-07-09T12:35:32;33.20;30.10
19258;DHT22;9763;48.780;9.212;2022-07-09T12:38:57;33.10;29.90
19258;DHT22;9763;48.780;9.212;2022-07-09T12:45:45;32.80;29.70
19258;DHT22;9763;48.780;9.212;2022-07-09T12:52:33;32.80;30.00
19258;DHT22;9763;48.780;9.212;2022-07-09T12:55:58;32.80;30.40
19258;DHT22;9763;48.780;9.212;2022-07-09T12:59:24;32.80;30.30
19258;DHT22;9763;48.780;9.212;2022-07-09T13:02:48;32.70;30.20
19258;DHT22;9763;48.780;9.212;2022-07-09T13:06:12;32.50;30.30
19258;DHT22;9763;48.780;9.212;2022-07-09T13:09:50;32.50;30.50
19258;DHT22;9763;48.780;9.212;2022-07-09T13:13:15;32.50;30.80
19258;DHT22;9763;48.780;9.212;2022-07-09T13:16:39;32.30;30.40
19258;DHT22;9763;48.780;9.212;2022-07-09T13:20:04;32.20;30.20
19258;DHT22;9763;48.780;9.212;2022-07-09T13:23:28;31.90;30.10
19258;DHT22;9763;48.780;9.212;2022-07-09T13:26:53;31.60;30.20
19258;DHT22;9763;48.780;9.212;2022-07-09T13:30:18;31.40;30.80
19258;DHT22;9763;48.780;9.212;2022-07-09T13:33:43;31.30;31.50
19258;DHT22;9763;48.780;9.212;2022-07-09T13:37:07;31.30;31.70
19258;DHT22;9763;48.780;9.212;2022-07-09T13:40:30;31.40;31.30
19258;DHT22;9763;48.780;9.212;2022-07-09T13:43:54;31.40;31.20
19258;DHT22;9763;48.780;9.212;2022-07-09T13:47:19;31.30;31.00
19258;DHT22;9763;48.780;9.212;2022-07-09T13:50:42;31.30;31.20
19258;DHT22;9763;48.780;9.212;2022-07-09T13:54:06;31.30;31.50
19258;DHT22;9763;48.780;9.212;2022-07-09T13:57:31;31.20;31.60
19258;DHT22;9763;48.780;9.212;2022-07-09T14:00:54;31.20;31.50
19258;DHT22;9763;48.780;9.212;2022-07-09T14:04:19;31.20;31.30
19258;DHT22;9763;48.780;9.212;2022-07-09T14:07:43;31.20;31.30
19258;DHT22;9763;48.780;9.212;2022-07-09T14:11:07;31.20;31.30
19258;DHT22;9763;48.780;9.212;2022-07-09T14:14:31;30.90;31.60
19258;DHT22;9763;48.780;9.212;2022-07-09T14:17:55;31.20;31.20
19258;DHT22;9763;48.780;9.212;2022-07-09T14:21:20;31.20;31.30
19258;DHT22;9763;48.780;9.212;2022-07-09T14:24:43;31.10;31.50
19258;DHT22;9763;48.780;9.212;2022-07-09T14:28:07;31.10;31.80
19258;DHT22;9763;48.780;9.212;2022-07-09T14:31:31;31.10;31.60
19258;DHT22;9763;48.780;9.212;2022-07-09T14:34:55;31.00;32.30
19258;DHT22;9763;48.780;9.212;2022-07-09T14:38:26;31.00;31.90
19258;DHT22;9763;48.780;9.212;2022-07-09T14:41:50;29.40;31.20
19258;DHT22;9763;48.780;9.212;2022-07-09T14:45:14;30.90;32.30
19258;DHT22;9763;48.780;9.212;2022-07-09T14:48:37;31.00;32.30
19258;DHT22;9763;48.780;9.212;2022-07-09T14:52:12;31.10;32.10
19258;DHT22;9763;48.780;9.212;2022-07-09T14:55:38;31.00;31.90
19258;DHT22;9763;48.780;9.212;2022-07-09T14:59:02;31.00;32.60
19258;DHT22;9763;48.780;9.212;2022-07-09T15:02:25;30.90;32.40
19258;DHT22;9763;48.780;9.212;2022-07-09T15:05:49;30.80;32.40
19258;DHT22;9763;48.780;9.212;2022-07-09T15:09:13;30.70;32.00
19258;DHT22;9763;48.780;9.212;2022-07-09T15:12:38;30.50;31.90
19258;DHT22;9763;48.780;9.212;2022-07-09T15:16:02;30.40;32.00
19258;DHT22;9763;48.780;9.212;2022-07-09T15:19:26;30.20;32.20
19258;DHT22;9763;48.780;9.212;2022-07-09T15:22:50;30.10;32.10
19258;DHT22;9763;48.780;9.212;2022-07-09T15:26:13;29.90;32.90
19258;DHT22;9763;48.780;9.212;2022-07-09T15:29:38;29.80;32.40
19258;DHT22;9763;48.780;9.212;2022-07-09T15:33:02;29.80;32.70
19258;DHT22;9763;48.780;9.212;2022-07-09T15:36:26;29.80;32.90
19258;DHT22;9763;48.780;9.212;2022-07-09T15:39:50;29.70;33.00
19258;DHT22;9763;48.780;9.212;2022-07-09T15:43:14;29.70;33.10
19258;DHT22;9763;48.780;9.212;2022-07-09T15:46:39;29.70;33.40
19258;DHT22;9763;48.780;9.212;2022-07-09T15:50:03;29.60;33.60
19258;DHT22;9763;48.780;9.212;2022-07-09T15:53:29;29.60;33.60
19258;DHT22;9763;48.780;9.212;2022-07-09T15:56:52;29.60;33.60
19258;DHT22;9763;48.780;9.212;2022-07-09T16:00:16;29.60;33.70
19258;DHT22;9763;48.780;9.212;2022-07-09T16:03:47;29.60;33.90
19258;DHT22;9763;48.780;9.212;2022-07-09T16:07:10;29.60;34.40
19258;DHT22;9763;48.780;9.212;2022-07-09T16:10:34;29.50;34.70
19258;DHT22;9763;48.780;9.212;2022-07-09T16:24:10;29.10;34.30
19258;DHT22;9763;48.780;9.212;2022-07-09T16:30:58;29.00;34.50
19258;DHT22;9763;48.780;9.212;2022-07-09T16:34:22;29.00;34.60
19258;DHT22;9763;48.780;9.212;2022-07-09T16:37:47;29.00;34.80
19258;DHT22;9763;48.780;9.212;2022-07-09T16:41:12;29.10;34.80
19258;DHT22;9763;48.780;9.212;2022-07-09T16:54:51;29.00;35.00
19258;DHT22;9763;48.780;9.212;2022-07-09T17:01:39;29.00;35.20
19258;DHT22;9763;48.780;9.212;2022-07-09T17:05:03;28.90;35.10
19258;DHT22;9763;48.780;9.212;2022-07-09T17:11:53;28.80;35.30
19258;DHT22;9763;48.780;9.212;2022-07-09T17:15:20;28.80;35.30
19258;DHT22;9763;48.780;9.212;2022-07-09T17:22:07;28.90;35.60
19258;DHT22;9763;48.780;9.212;2022-07-09T17:28:56;28.90;35.90
19258;DHT22;9763;48.780;9.212;2022-07-09T17:32:20;28.80;35.60
19258;DHT22;9763;48.780;9.212;2022-07-09T17:35:44;28.80;35.70
19258;DHT22;9763;48.780;9.212;2022-07-09T17:45:59;28.70;35.80
19258;DHT22;9763;48.780;9.212;2022-07-09T17:49:22;28.70;35.90
19258;DHT22;9763;48.780;9.212;2022-07-09T17:52:46;28.50;35.80
19258;DHT22;9763;48.780;9.212;2022-07-09T17:56:10;28.60;36.50
19258;DHT22;9763;48.780;9.212;2022-07-09T17:59:33;28.60;36.50
19258;DHT22;9763;48.780;9.212;2022-07-09T18:02:59;28.40;36.00
19258;DHT22;9763;48.780;9.212;2022-07-09T18:06:23;28.40;36.70
19258;DHT22;9763;48.780;9.212;2022-07-09T18:13:10;28.30;36.20
19258;DHT22;9763;48.780;9.212;2022-07-09T18:33:37;27.70;36.50
19258;DHT22;9763;48.780;9.212;2022-07-09T18:37:03;27.60;36.60
19258;DHT22;9763;48.780;9.212;2022-07-09T18:40:27;27.40;36.70
19258;DHT22;9763;48.780;9.212;2022-07-09T18:50:39;27.30;37.10
19258;DHT22;9763;48.780;9.212;2022-07-09T18:54:04;27.20;37.20
19258;DHT22;9763;48.780;9.212;2022-07-09T19:00:54;27.10;37.60
19258;DHT22;9763;48.780;9.212;2022-07-09T19:07:42;27.00;38.00
19258;DHT22;9763;48.780;9.212;2022-07-09T19:11:07;26.90;38.00
19258;DHT22;9763;48.780;9.212;2022-07-09T19:14:30;26.90;38.20
19258;DHT22;9763;48.780;9.212;2022-07-09T19:28:07;26.80;38.40
19258;DHT22;9763;48.780;9.212;2022-07-09T19:35:12;26.80;38.50
19258;DHT22;9763;48.780;9.212;2022-07-09T19:38:36;26.80;38.60
19258;DHT22;9763;48.780;9.212;2022-07-09T19:42:01;26.80;38.70
19258;DHT22;9763;48.780;9.212;2022-07-09T19:45:26;26.80;38.80
19258;DHT22;9763;48.780;9.212;2022-07-09T19:52:14;26.80;38.80
19258;DHT22;9763;48.780;9.212;2022-07-09T19:59:02;26.70;39.10
19258;DHT22;9763;48.780;9.212;2022-07-09T20:02:28;26.80;39.30
19258;DHT22;9763;48.780;9.212;2022-07-09T20:05:51;26.80;39.20
19258;DHT22;9763;48.780;9.212;2022-07-09T20:12:39;26.70;39.40
19258;DHT22;9763;48.780;9.212;2022-07-09T20:16:03;26.60;39.50
19258;DHT22;9763;48.780;9.212;2022-07-09T20:19:29;26.60;39.60
19258;DHT22;9763;48.780;9.212;2022-07-09T20:26:17;26.50;42.50
19258;DHT22;9763;48.780;9.212;2022-07-09T20:29:41;26.40;46.10
19258;DHT22;9763;48.780;9.212;2022-07-09T20:36:30;26.00;45.50
19258;DHT22;9763;48.780;9.212;2022-07-09T20:46:42;25.00;44.90
19258;DHT22;9763;48.780;9.212;2022-07-09T20:50:06;24.70;45.50
19258;DHT22;9763;48.780;9.212;2022-07-09T21:03:45;24.30;45.60
19258;DHT22;9763;48.780;9.212;2022-07-09T21:10:34;24.10;45.90
19258;DHT22;9763;48.780;9.212;2022-07-09T21:17:21;24.10;46.00
19258;DHT22;9763;48.780;9.212;2022-07-09T21:24:27;24.10;46.20
19258;DHT22;9763;48.780;9.212;2022-07-09T21:27:52;24.00;46.30
19258;DHT22;9763;48.780;9.212;2022-07-09T21:34:40;24.10;46.80
19258;DHT22;9763;48.780;9.212;2022-07-09T21:41:27;23.90;46.50
19258;DHT22;9763;48.780;9.212;2022-07-09T21:51:40;23.80;46.80
19258;DHT22;9763;48.780;9.212;2022-07-09T21:55:05;23.70;47.40
19258;DHT22;9763;48.780;9.212;2022-07-09T22:12:07;23.40;48.20
19258;DHT22;9763;48.780;9.212;2022-07-09T22:15:31;23.40;48.20
19258;DHT22;9763;48.780;9.212;2022-07-09T22:18:56;23.30;48.50
19258;DHT22;9763;48.780;9.212;2022-07-09T22:22:20;23.00;48.40
19258;DHT22;9763;48.780;9.212;2022-07-09T22:25:44;23.00;49.70
19258;DHT22;9763;48.780;9.212;2022-07-09T22:29:07;23.00;49.40
19258;DHT22;9763;48.780;9.212;2022-07-09T22:32:31;22.80;49.50
19258;DHT22;9763;48.780;9.212;2022-07-09T22:35:56;22.70;50.70
19258;DHT22;9763;48.780;9.212;2022-07-09T22:39:19;22.60;50.30
19258;DHT22;9763;48.780;9.212;2022-07-09T22:42:43;22.50;50.60
19258;DHT22;9763;48.780;9.212;2022-07-09T22:46:07;22.50;50.60
19258;DHT22;9763;48.780;9.212;2022-07-09T22:49:31;22.50;50.70
19258;DHT22;9763;48.780;9.212;2022-07-09T23:13:20;22.70;51.70
19258;DHT22;9763;48.780;9.212;2022-07-09T23:23:34;22.50;52.70
19258;DHT22;9763;48.780;9.212;2022-07-09T23:26:59;22.60;52.70
19258;DHT22;9763;48.780;9.212;2022-07-09T23:30:22;22.50;52.30
19258;DHT22;9763;48.780;9.212;2022-07-09T23:33:47;22.50;52.60
19258;DHT22;9763;48.780;9.212;2022-07-09T23:37:11;22.40;52.80
19258;DHT22;9763;48.780;9.212;2022-07-09T23:40:35;22.30;52.80
19258;DHT22;9763;48.780;9.212;2022-07-09T23:44:00;22.30;52.90
19258;DHT22;9763;48.780;9.212;2022-07-09T23:47:23;22.30;52.80
19258;DHT22;9763;48.780;9.212;2022-07-09T23:50:47;22.30;52.90
19258;DHT22;9763;48.780;9.212;2022-07-09T23:54:10;22.20;52.60
19258;DHT22;9763;48.780;9.212;2022-07-09T23:57:34;22.20;52.60
